createdAt,value
2022-07-31T00:00:12.185Z,15.30
2022-07-31T00:04:12.025Z,15.20
2022-07-31T00:08:09.217Z,15.10
2022-07-31T00:12:07.034Z,15.10
2022-07-31T00:16:04.701Z,15.00
2022-07-31T00:20:02.223Z,15.00
2022-07-31T00:23:59.370Z,14.90
2022-07-31T00:27:56.377Z,14.90
2022-07-31T00:31:53.397Z,14.90
2022-07-31T00:35:50.402Z,14.80
2022-07-31T00:39:47.567Z,14.70
2022-07-31T00:43:44.639Z,14.70
2022-07-31T00:47:42.711Z,14.70
2022-07-31T00:51:40.317Z,14.70
2022-07-31T00:55:41.808Z,14.60
2022-07-31T00:59:50.874Z,14.50
2022-07-31T01:03:48.156Z,14.50
2022-07-31T01:07:49.003Z,14.40
2022-07-31T01:12:07.421Z,14.40
2022-07-31T01:16:07.574Z,14.40
2022-07-31T01:20:06.223Z,14.30
2022-07-31T01:24:40.089Z,14.20
2022-07-31T01:29:18.979Z,14.20
2022-07-31T01:33:25.429Z,14.20
2022-07-31T01:37:34.633Z,14.10
2022-07-31T01:41:40.565Z,14.00
2022-07-31T01:45:42.983Z,14.00
2022-07-31T01:49:42.960Z,13.90
2022-07-31T01:53:43.459Z,13.90
2022-07-31T01:57:43.093Z,13.80
2022-07-31T02:01:42.164Z,13.80
2022-07-31T02:05:42.812Z,13.80
2022-07-31T02:09:53.701Z,13.70
2022-07-31T02:14:02.318Z,13.70
2022-07-31T02:18:03.308Z,13.60
2022-07-31T02:22:03.436Z,13.60
2022-07-31T02:26:03.707Z,13.50
2022-07-31T02:30:04.525Z,13.50
2022-07-31T02:34:01.916Z,13.40
2022-07-31T02:38:00.957Z,13.40
2022-07-31T02:42:01.876Z,13.30
2022-07-31T02:46:00.642Z,13.30
2022-07-31T02:49:58.769Z,13.30
2022-07-31T02:53:55.963Z,13.30
2022-07-31T02:57:55.743Z,13.20
2022-07-31T03:01:52.872Z,13.20
2022-07-31T03:05:50.019Z,13.20
2022-07-31T03:09:48.103Z,13.10
2022-07-31T03:14:13.559Z,13.00
2022-07-31T03:18:14.929Z,13.10
2022-07-31T03:22:15.446Z,13.00
2022-07-31T03:26:13.444Z,12.90
2022-07-31T03:30:25.316Z,12.90
2022-07-31T03:34:28.183Z,12.90
2022-07-31T03:38:40.785Z,12.90
2022-07-31T03:42:44.778Z,12.90
2022-07-31T03:46:42.544Z,12.80
2022-07-31T03:50:41.976Z,12.80
2022-07-31T03:54:39.225Z,12.80
2022-07-31T03:58:51.518Z,12.80
2022-07-31T04:02:50.112Z,12.80
2022-07-31T04:07:10.997Z,12.80
2022-07-31T04:11:08.171Z,12.80
2022-07-31T04:15:09.299Z,12.80
2022-07-31T04:19:06.566Z,12.90
2022-07-31T04:23:04.149Z,12.90
2022-07-31T04:27:24.542Z,12.90
2022-07-31T04:31:21.545Z,13.00
2022-07-31T04:35:19.063Z,12.90
2022-07-31T04:39:16.213Z,13.00
2022-07-31T04:43:13.317Z,13.00
2022-07-31T04:47:10.362Z,13.10
2022-07-31T04:51:24.126Z,13.20
2022-07-31T04:55:21.612Z,13.30
2022-07-31T04:59:22.428Z,13.40
2022-07-31T05:03:20.215Z,13.60
2022-07-31T05:07:17.234Z,13.80
2022-07-31T05:11:23.896Z,14.20
2022-07-31T05:15:21.068Z,14.30
2022-07-31T05:19:18.421Z,14.60
2022-07-31T05:23:33.992Z,14.70
2022-07-31T05:27:39.136Z,14.80
2022-07-31T05:31:38.529Z,14.90
2022-07-31T05:35:57.375Z,15.10
2022-07-31T05:39:54.962Z,15.30
2022-07-31T05:44:12.280Z,15.60
2022-07-31T05:48:18.804Z,16.00
2022-07-31T05:52:18.538Z,16.20
2022-07-31T05:56:22.386Z,16.50
2022-07-31T06:00:21.842Z,16.80
2022-07-31T06:04:19.974Z,17.00
2022-07-31T06:08:18.226Z,17.20
2022-07-31T06:12:18.368Z,17.40
2022-07-31T06:16:15.754Z,17.60
2022-07-31T06:20:14.559Z,17.90
2022-07-31T06:24:11.718Z,18.10
2022-07-31T06:28:13.692Z,18.20
2022-07-31T06:32:15.795Z,18.30
2022-07-31T06:36:13.041Z,18.40
2022-07-31T06:40:15.880Z,18.70
2022-07-31T06:44:34.619Z,19.00
2022-07-31T06:48:49.742Z,19.10
2022-07-31T06:52:51.509Z,19.00
2022-07-31T06:56:49.397Z,19.10
2022-07-31T07:00:46.455Z,19.10
2022-07-31T07:04:56.472Z,19.30
2022-07-31T07:09:00.842Z,19.40
2022-07-31T07:12:57.872Z,19.80
2022-07-31T07:16:55.121Z,20.30
2022-07-31T07:20:53.091Z,20.70
2022-07-31T07:24:50.313Z,20.80
2022-07-31T07:28:51.712Z,20.80
2022-07-31T07:32:49.200Z,20.90
2022-07-31T07:36:47.131Z,21.20
2022-07-31T07:40:57.606Z,21.50
2022-07-31T07:44:54.641Z,21.90
2022-07-31T07:48:53.044Z,22.20
2022-07-31T07:53:04.559Z,22.50
2022-07-31T07:57:22.468Z,22.90
2022-07-31T08:01:38.805Z,23.20
2022-07-31T08:05:49.831Z,23.30
2022-07-31T08:09:46.846Z,23.30
2022-07-31T08:14:05.381Z,23.50
2022-07-31T08:18:11.373Z,24.50
2022-07-31T08:22:09.184Z,25.50
2022-07-31T08:26:08.659Z,26.40
2022-07-31T08:30:06.609Z,26.40
2022-07-31T08:34:05.238Z,26.00
2022-07-31T08:38:05.008Z,26.50
2022-07-31T08:42:28.944Z,27.00
2022-07-31T08:46:27.426Z,27.70
2022-07-31T08:50:25.698Z,28.30
2022-07-31T08:54:26.331Z,28.70
2022-07-31T08:58:23.468Z,28.50
2022-07-31T09:02:22.249Z,28.80
2022-07-31T09:06:45.333Z,28.80
2022-07-31T09:10:47.740Z,28.70
2022-07-31T09:14:49.515Z,28.80
2022-07-31T09:19:51.152Z,29.40
2022-07-31T09:23:22.896Z,30.20
2022-07-31T09:27:28.296Z,30.70
2022-07-31T09:31:33.589Z,30.50
2022-07-31T09:35:53.567Z,30.20
2022-07-31T09:39:53.630Z,29.00
2022-07-31T09:44:11.001Z,28.20
2022-07-31T09:48:15.195Z,28.40
2022-07-31T09:52:21.329Z,28.40
2022-07-31T09:56:18.841Z,28.50
2022-07-31T10:00:17.393Z,28.40
2022-07-31T10:04:19.146Z,28.40
2022-07-31T10:08:18.110Z,29.00
2022-07-31T10:12:53.716Z,29.20
2022-07-31T10:16:58.549Z,29.70
2022-07-31T10:21:28.984Z,29.80
2022-07-31T10:25:41.320Z,29.90
2022-07-31T10:29:49.428Z,29.90
2022-07-31T10:33:47.782Z,29.90
2022-07-31T10:38:27.431Z,29.90
2022-07-31T10:43:13.868Z,30.30
2022-07-31T10:47:16.740Z,30.00
2022-07-31T10:51:32.570Z,31.30
2022-07-31T10:56:04.433Z,31.90
2022-07-31T11:00:22.937Z,32.30
2022-07-31T11:04:46.861Z,32.70
2022-07-31T11:08:51.562Z,33.30
2022-07-31T11:13:23.302Z,32.80
2022-07-31T11:18:21.122Z,31.90
2022-07-31T11:22:31.698Z,32.70
2022-07-31T11:26:33.113Z,33.90
2022-07-31T11:30:50.149Z,33.60
2022-07-31T11:34:50.495Z,33.50
2022-07-31T11:38:50.990Z,32.40
2022-07-31T11:42:55.904Z,32.20
2022-07-31T11:48:09.621Z,32.30
2022-07-31T11:51:23.837Z,33.10
2022-07-31T11:55:20.901Z,33.80
2022-07-31T11:59:46.393Z,33.70
2022-07-31T12:03:38.464Z,33.80
2022-07-31T12:07:37.496Z,33.10
2022-07-31T12:11:34.667Z,33.10
2022-07-31T12:15:31.760Z,34.20
2022-07-31T12:19:37.487Z,34.60
2022-07-31T12:23:52.098Z,33.60
2022-07-31T12:27:56.490Z,34.00
2022-07-31T12:31:54.639Z,34.40
2022-07-31T12:35:55.816Z,34.50
2022-07-31T12:40:00.003Z,34.50
2022-07-31T12:44:13.387Z,33.40
2022-07-31T12:48:11.787Z,32.50
2022-07-31T12:52:09.991Z,32.80
2022-07-31T12:56:12.411Z,32.50
2022-07-31T13:00:10.808Z,32.70
2022-07-31T13:04:18.223Z,33.30
2022-07-31T13:08:16.581Z,33.90
2022-07-31T13:12:13.637Z,34.90
2022-07-31T13:16:10.667Z,35.00
2022-07-31T13:20:08.348Z,34.70
2022-07-31T13:24:12.253Z,34.50
2022-07-31T13:28:09.406Z,34.10
2022-07-31T13:32:06.806Z,33.50
2022-07-31T13:36:05.859Z,32.70
2022-07-31T13:40:03.485Z,32.30
2022-07-31T13:44:01.630Z,31.70
2022-07-31T13:48:00.504Z,32.80
2022-07-31T13:52:00.530Z,34.60
2022-07-31T13:55:58.839Z,34.20
2022-07-31T13:59:55.813Z,32.30
2022-07-31T14:03:52.781Z,31.40
2022-07-31T14:07:51.790Z,31.40
2022-07-31T14:11:50.061Z,32.00
2022-07-31T14:15:48.160Z,32.60
2022-07-31T14:19:45.317Z,32.70
2022-07-31T14:23:42.747Z,33.50
2022-07-31T14:27:40.013Z,34.80
2022-07-31T14:31:37.037Z,35.80
2022-07-31T14:35:34.262Z,36.50
2022-07-31T14:39:31.677Z,35.80
2022-07-31T14:43:28.764Z,35.10
2022-07-31T14:47:26.378Z,34.60
2022-07-31T14:51:23.396Z,33.40
2022-07-31T14:55:21.066Z,31.90
2022-07-31T14:59:18.212Z,31.30
2022-07-31T15:03:15.309Z,31.30
2022-07-31T15:07:34.193Z,30.90
2022-07-31T15:11:58.276Z,30.60
2022-07-31T15:15:48.458Z,30.00
2022-07-31T15:19:45.470Z,29.50
2022-07-31T15:23:43.186Z,29.10
2022-07-31T15:27:40.177Z,28.40
2022-07-31T15:31:37.258Z,27.90
2022-07-31T15:35:34.294Z,27.70
2022-07-31T15:39:31.340Z,27.40
2022-07-31T15:43:28.522Z,27.40
2022-07-31T15:47:25.891Z,27.40
2022-07-31T15:51:23.911Z,27.60
2022-07-31T15:55:21.402Z,27.90
2022-07-31T15:59:18.822Z,28.40
2022-07-31T16:03:18.136Z,28.60
2022-07-31T16:08:30.273Z,28.70
2022-07-31T16:12:04.248Z,28.70
2022-07-31T16:15:49.529Z,28.80
2022-07-31T16:19:46.529Z,28.60
2022-07-31T16:23:43.879Z,28.40
2022-07-31T16:27:41.090Z,28.10
2022-07-31T16:31:38.395Z,28.20
2022-07-31T16:35:35.409Z,28.00
2022-07-31T16:39:32.485Z,27.80
2022-07-31T16:43:47.206Z,27.60
2022-07-31T16:47:51.358Z,27.40
2022-07-31T16:51:48.697Z,27.40
2022-07-31T16:55:53.117Z,27.40
2022-07-31T16:59:58.187Z,27.30
2022-07-31T17:04:00.508Z,27.20
2022-07-31T17:08:00.190Z,27.00
2022-07-31T17:11:57.601Z,27.00
2022-07-31T17:15:54.603Z,26.90
2022-07-31T17:19:55.131Z,26.80
2022-07-31T17:23:53.383Z,26.90
2022-07-31T17:27:53.453Z,26.80
2022-07-31T17:31:50.633Z,26.70
2022-07-31T17:35:47.651Z,26.60
2022-07-31T17:39:48.326Z,26.50
2022-07-31T17:43:50.118Z,26.30
2022-07-31T17:48:03.717Z,26.20
2022-07-31T17:52:01.104Z,26.00
2022-07-31T17:55:58.089Z,26.00
2022-07-31T17:59:57.573Z,25.90
2022-07-31T18:03:54.582Z,25.70
2022-07-31T18:07:52.050Z,25.70
2022-07-31T18:11:50.797Z,25.60
2022-07-31T18:15:47.780Z,25.50
2022-07-31T18:19:45.428Z,25.40
2022-07-31T18:23:47.178Z,25.30
2022-07-31T18:27:44.559Z,25.20
2022-07-31T18:31:41.586Z,25.10
2022-07-31T18:35:38.757Z,25.00
2022-07-31T18:39:48.839Z,24.90
2022-07-31T18:43:46.408Z,24.90
2022-07-31T18:47:43.431Z,24.70
2022-07-31T18:51:41.333Z,24.60
2022-07-31T18:55:38.351Z,24.50
2022-07-31T18:59:37.308Z,24.40
2022-07-31T19:03:34.810Z,24.30
2022-07-31T19:07:35.871Z,24.20
2022-07-31T19:11:33.371Z,24.10
2022-07-31T19:15:30.773Z,24.00
2022-07-31T19:19:29.051Z,23.90
2022-07-31T19:23:39.133Z,23.80
2022-07-31T19:27:48.583Z,23.60
2022-07-31T19:31:48.280Z,23.50
2022-07-31T19:35:55.317Z,23.50
2022-07-31T19:39:55.787Z,23.40
2022-07-31T19:43:53.105Z,23.30
2022-07-31T19:47:50.249Z,23.30
2022-07-31T19:51:47.368Z,23.20
2022-07-31T19:55:44.460Z,23.10
2022-07-31T19:59:43.207Z,23.10
2022-07-31T20:03:40.564Z,23.00
2022-07-31T20:07:40.863Z,23.00
2022-07-31T20:11:37.865Z,23.00
2022-07-31T20:15:52.442Z,22.90
2022-07-31T20:20:03.010Z,22.80
2022-07-31T20:24:07.642Z,22.70
2022-07-31T20:28:07.172Z,22.60
2022-07-31T20:32:06.836Z,22.50
2022-07-31T20:36:07.589Z,22.40
2022-07-31T20:40:06.964Z,22.30
2022-07-31T20:44:04.165Z,22.30
2022-07-31T20:48:01.183Z,22.20
2022-07-31T20:51:58.212Z,22.20
2022-07-31T20:55:56.225Z,22.10
2022-07-31T20:59:53.783Z,22.10
2022-07-31T21:03:50.823Z,22.10
2022-07-31T21:07:47.781Z,22.00
2022-07-31T21:11:44.801Z,21.90
2022-07-31T21:15:45.064Z,21.90
2022-07-31T21:19:42.432Z,21.90
2022-07-31T21:23:39.693Z,21.90
2022-07-31T21:27:38.936Z,21.80
2022-07-31T21:31:36.489Z,21.80
2022-07-31T21:35:47.126Z,21.70
2022-07-31T21:39:44.263Z,21.70
2022-07-31T21:43:59.143Z,21.60
2022-07-31T21:48:00.650Z,21.60
2022-07-31T21:51:57.947Z,21.50
2022-07-31T21:55:58.021Z,21.50
2022-07-31T21:59:54.978Z,21.50
2022-07-31T22:03:51.965Z,21.40
2022-07-31T22:07:51.605Z,21.40
2022-07-31T22:12:01.333Z,21.30
2022-07-31T22:16:01.007Z,21.30
2022-07-31T22:20:01.464Z,21.30
2022-07-31T22:23:58.715Z,21.20
2022-07-31T22:27:56.057Z,21.10
2022-07-31T22:31:53.785Z,21.10
2022-07-31T22:35:59.011Z,21.00
2022-07-31T22:40:00.044Z,20.90
2022-07-31T22:44:13.766Z,20.70
2022-07-31T22:48:15.046Z,20.50
2022-07-31T22:52:15.199Z,20.30
2022-07-31T22:56:12.207Z,20.20
2022-07-31T23:00:12.456Z,20.10
2022-07-31T23:04:09.454Z,20.00
2022-07-31T23:08:06.487Z,20.00
2022-07-31T23:12:06.575Z,20.00
2022-07-31T23:16:03.981Z,20.00
2022-07-31T23:20:00.978Z,20.00
2022-07-31T23:23:57.949Z,20.00
2022-07-31T23:27:54.927Z,20.00
2022-07-31T23:31:51.938Z,19.90
2022-07-31T23:35:48.936Z,19.90
2022-07-31T23:39:45.956Z,19.90
2022-07-31T23:43:55.511Z,19.80
2022-07-31T23:47:52.754Z,19.80
2022-07-31T23:51:49.761Z,19.70
2022-07-31T23:55:49.216Z,19.70
2022-07-31T23:59:46.252Z,19.50
